createdAt,value
2019-04-26T00:01:16.502Z,18.30
2019-04-26T00:03:46.824Z,18.30
2019-04-26T00:06:16.687Z,18.30
2019-04-26T00:08:50.666Z,18.30
2019-04-26T00:11:42.182Z,18.30
2019-04-26T00:14:30.328Z,18.20
2019-04-26T00:17:06.415Z,18.30
2019-04-26T00:19:35.896Z,18.20
2019-04-26T00:22:05.375Z,18.20
2019-04-26T00:24:34.699Z,18.10
2019-04-26T00:27:03.786Z,18.10
2019-04-26T00:29:32.859Z,18.10
2019-04-26T00:32:02.019Z,18.10
2019-04-26T00:34:30.954Z,18.10
2019-04-26T00:36:59.973Z,18.10
2019-04-26T00:39:29.038Z,18.10
2019-04-26T00:41:58.991Z,18.00
2019-04-26T00:44:28.651Z,18.00
2019-04-26T00:46:59.419Z,18.00
2019-04-26T00:49:29.843Z,18.00
2019-04-26T00:51:59.384Z,17.90
2019-04-26T00:54:29.546Z,17.90
2019-04-26T00:56:59.810Z,17.90
2019-04-26T00:59:29.494Z,17.80
2019-04-26T01:02:04.286Z,17.80
2019-04-26T01:04:33.288Z,17.70
2019-04-26T01:07:02.444Z,17.60
2019-04-26T01:09:31.464Z,17.60
2019-04-26T01:12:00.378Z,17.50
2019-04-26T01:14:29.359Z,17.50
2019-04-26T01:16:58.369Z,17.50
2019-04-26T01:19:28.100Z,17.40
2019-04-26T01:22:00.452Z,17.30
2019-04-26T01:24:32.582Z,17.30
2019-04-26T01:27:03.848Z,17.20
2019-04-26T01:29:33.903Z,17.20
2019-04-26T01:32:07.724Z,17.20
2019-04-26T01:34:38.514Z,17.20
2019-04-26T01:37:07.987Z,17.00
2019-04-26T01:39:39.295Z,16.90
2019-04-26T01:42:21.381Z,16.90
2019-04-26T01:45:07.796Z,17.00
2019-04-26T01:47:38.070Z,17.30
2019-04-26T01:50:07.753Z,17.50
2019-04-26T01:52:36.890Z,17.50
2019-04-26T01:55:06.831Z,17.20
2019-04-26T01:57:36.140Z,17.20
2019-04-26T02:00:35.630Z,17.20
2019-04-26T02:03:27.757Z,17.10
2019-04-26T02:05:56.961Z,16.80
2019-04-26T02:08:26.285Z,16.70
2019-04-26T02:10:55.478Z,16.70
2019-04-26T02:13:25.305Z,16.60
2019-04-26T02:15:54.404Z,16.40
2019-04-26T02:18:24.085Z,16.30
2019-04-26T02:21:04.834Z,16.30
2019-04-26T02:23:38.866Z,16.30
2019-04-26T02:26:26.642Z,16.10
2019-04-26T02:28:55.860Z,16.30
2019-04-26T02:31:27.334Z,16.20
2019-04-26T02:33:56.478Z,16.10
2019-04-26T02:36:44.980Z,16.10
2019-04-26T02:38:57.304Z,16.00
2019-04-26T02:41:29.253Z,16.00
2019-04-26T02:44:01.360Z,16.00
2019-04-26T02:46:43.855Z,15.80
2019-04-26T02:49:19.723Z,15.80
2019-04-26T02:52:01.029Z,15.80
2019-04-26T02:54:45.924Z,15.70
2019-04-26T02:57:34.239Z,15.60
2019-04-26T03:00:07.914Z,15.30
2019-04-26T03:02:39.094Z,15.40
2019-04-26T03:05:10.097Z,15.30
2019-04-26T03:08:07.811Z,15.30
2019-04-26T03:10:43.459Z,15.20
2019-04-26T03:13:25.764Z,15.00
2019-04-26T03:16:11.143Z,15.10
2019-04-26T03:19:02.199Z,14.90
2019-04-26T03:22:03.506Z,14.90
2019-04-26T03:24:41.027Z,14.70
2019-04-26T03:27:26.401Z,14.90
2019-04-26T03:30:19.479Z,14.70
2019-04-26T03:33:18.367Z,14.60
2019-04-26T03:36:23.146Z,14.80
2019-04-26T03:39:18.782Z,14.20
2019-04-26T03:42:17.775Z,14.20
2019-04-26T03:45:11.461Z,14.50
2019-04-26T03:47:48.157Z,14.40
2019-04-26T03:50:26.858Z,14.00
2019-04-26T03:53:07.816Z,13.90
2019-04-26T03:56:22.063Z,13.70
2019-04-26T03:59:32.355Z,13.60
2019-04-26T04:02:22.150Z,13.50
2019-04-26T04:05:03.608Z,13.70
2019-04-26T04:07:42.136Z,13.20
2019-04-26T04:10:14.752Z,13.20
2019-04-26T04:13:43.026Z,12.90
2019-04-26T04:16:25.204Z,12.70
2019-04-26T04:19:00.989Z,12.50
2019-04-26T04:21:59.067Z,13.00
2019-04-26T04:24:51.679Z,12.80
2019-04-26T04:27:45.175Z,13.00
2019-04-26T04:30:28.203Z,13.00
2019-04-26T04:33:27.966Z,12.70
2019-04-26T04:36:02.755Z,12.80
2019-04-26T04:38:50.115Z,12.90
2019-04-26T04:41:31.879Z,12.60
2019-04-26T04:44:34.556Z,12.30
2019-04-26T04:47:32.365Z,12.40
2019-04-26T04:50:35.450Z,12.60
2019-04-26T04:53:10.726Z,11.90
2019-04-26T04:55:52.070Z,12.00
2019-04-26T04:58:30.467Z,12.10
2019-04-26T05:01:55.779Z,12.20
2019-04-26T05:04:36.359Z,12.00
2019-04-26T05:08:05.221Z,12.10
2019-04-26T05:10:40.275Z,11.90
2019-04-26T05:13:38.300Z,12.20
2019-04-26T05:16:45.412Z,12.10
2019-04-26T05:19:44.235Z,12.30
2019-04-26T05:22:51.185Z,11.90
2019-04-26T05:26:32.231Z,11.70
2019-04-26T05:29:42.305Z,12.10
2019-04-26T05:33:01.711Z,12.10
2019-04-26T05:35:49.067Z,11.50
2019-04-26T05:39:11.094Z,11.50
2019-04-26T05:42:29.842Z,11.70
2019-04-26T05:45:42.262Z,11.90
2019-04-26T05:48:39.275Z,11.90
2019-04-26T05:51:38.552Z,11.60
2019-04-26T05:54:39.526Z,11.50
2019-04-26T05:57:58.497Z,11.70
2019-04-26T06:00:44.067Z,11.80
2019-04-26T06:04:04.084Z,11.70
2019-04-26T06:06:41.111Z,12.00
2019-04-26T06:09:30.739Z,12.10
2019-04-26T06:12:16.803Z,11.80
2019-04-26T06:15:25.167Z,11.70
2019-04-26T06:18:34.996Z,11.90
2019-04-26T06:21:33.315Z,12.00
2019-04-26T06:24:35.555Z,11.90
2019-04-26T06:27:27.587Z,12.00
2019-04-26T06:30:08.355Z,11.90
2019-04-26T06:33:03.228Z,12.00
2019-04-26T06:35:35.234Z,12.00
2019-04-26T06:38:25.133Z,12.10
2019-04-26T06:41:21.951Z,12.10
2019-04-26T06:43:56.881Z,12.00
2019-04-26T06:47:10.799Z,12.10
2019-04-26T06:50:33.282Z,11.90
2019-04-26T06:53:31.849Z,11.80
2019-04-26T06:56:23.661Z,11.90
2019-04-26T06:59:17.188Z,12.00
2019-04-26T07:02:00.889Z,12.20
2019-04-26T07:04:45.951Z,12.50
2019-04-26T07:07:45.279Z,12.50
2019-04-26T07:10:44.601Z,12.40
2019-04-26T07:13:39.560Z,12.60
2019-04-26T07:16:37.844Z,12.70
2019-04-26T07:20:04.511Z,12.70
2019-04-26T07:23:18.080Z,12.50
2019-04-26T07:26:28.905Z,12.50
2019-04-26T07:29:29.959Z,12.60
2019-04-26T07:32:48.275Z,12.50
2019-04-26T07:35:29.786Z,12.60
2019-04-26T07:38:26.729Z,12.80
2019-04-26T07:41:56.420Z,13.10
2019-04-26T07:45:01.961Z,13.10
2019-04-26T07:48:17.964Z,13.50
2019-04-26T07:51:23.947Z,13.60
2019-04-26T07:54:39.155Z,13.30
2019-04-26T07:57:42.251Z,13.20
2019-04-26T08:00:17.202Z,13.10
2019-04-26T08:03:07.196Z,13.20
2019-04-26T08:06:09.530Z,13.30
2019-04-26T08:08:47.426Z,13.50
2019-04-26T08:11:22.196Z,13.50
2019-04-26T08:14:13.378Z,13.50
2019-04-26T08:17:08.141Z,13.60
2019-04-26T08:19:43.985Z,13.50
2019-04-26T08:22:22.799Z,13.60
2019-04-26T08:24:49.636Z,13.50
2019-04-26T08:27:23.949Z,13.30
2019-04-26T08:30:03.446Z,13.40
2019-04-26T08:32:36.201Z,13.30
2019-04-26T08:35:21.632Z,13.60
2019-04-26T08:37:54.562Z,13.70
2019-04-26T08:40:30.911Z,13.80
2019-04-26T08:43:35.771Z,13.50
2019-04-26T08:46:26.253Z,13.50
2019-04-26T08:49:23.893Z,13.30
2019-04-26T08:51:55.976Z,13.50
2019-04-26T08:54:29.122Z,13.70
2019-04-26T08:57:06.954Z,14.00
2019-04-26T08:59:41.132Z,13.90
2019-04-26T09:02:37.847Z,13.70
2019-04-26T09:05:26.526Z,13.60
2019-04-26T09:07:58.968Z,13.70
2019-04-26T09:10:31.497Z,13.50
2019-04-26T09:13:00.447Z,13.40
2019-04-26T09:15:57.676Z,13.50
2019-04-26T09:18:27.888Z,13.50
2019-04-26T09:20:57.114Z,13.50
2019-04-26T09:23:44.415Z,13.50
2019-04-26T09:26:19.951Z,13.40
2019-04-26T09:29:00.934Z,13.40
2019-04-26T09:31:38.324Z,13.20
2019-04-26T09:34:10.406Z,13.20
2019-04-26T09:36:39.170Z,13.20
2019-04-26T09:39:09.967Z,13.00
2019-04-26T09:41:39.039Z,13.00
2019-04-26T09:44:15.232Z,12.90
2019-04-26T09:46:52.765Z,12.90
2019-04-26T09:49:28.863Z,13.00
2019-04-26T09:51:57.839Z,13.10
2019-04-26T09:54:26.911Z,12.90
2019-04-26T09:56:56.043Z,12.70
2019-04-26T09:59:25.064Z,12.80
2019-04-26T10:01:55.388Z,12.90
2019-04-26T10:04:24.983Z,13.00
2019-04-26T10:06:54.028Z,12.80
2019-04-26T10:09:24.733Z,13.00
2019-04-26T10:11:57.289Z,13.00
2019-04-26T10:14:37.131Z,12.90
2019-04-26T10:17:11.531Z,12.60
2019-04-26T10:19:47.318Z,12.60
2019-04-26T10:22:16.474Z,13.00
2019-04-26T10:24:45.470Z,12.90
2019-04-26T10:27:14.602Z,13.00
2019-04-26T10:29:43.659Z,12.80
2019-04-26T10:32:12.839Z,12.70
2019-04-26T10:34:42.812Z,12.80
2019-04-26T10:37:12.730Z,13.00
2019-04-26T10:39:41.801Z,13.00
2019-04-26T10:42:10.974Z,12.90
2019-04-26T10:44:41.108Z,12.80
2019-04-26T10:47:10.286Z,12.70
2019-04-26T10:49:44.171Z,12.80
2019-04-26T10:52:20.396Z,12.90
2019-04-26T10:54:55.816Z,12.60
2019-04-26T10:57:31.911Z,12.70
2019-04-26T11:00:03.679Z,12.50
2019-04-26T11:02:32.675Z,12.40
2019-04-26T11:05:01.766Z,12.30
2019-04-26T11:07:30.837Z,12.20
2019-04-26T11:10:02.830Z,12.20
2019-04-26T11:12:30.748Z,12.00
2019-04-26T11:14:59.838Z,11.90
2019-04-26T11:17:28.848Z,11.90
2019-04-26T11:19:57.968Z,11.80
2019-04-26T11:22:29.293Z,11.70
2019-04-26T11:24:57.895Z,11.30
2019-04-26T11:27:26.815Z,11.40
2019-04-26T11:30:00.064Z,11.40
2019-04-26T11:32:26.650Z,11.30
2019-04-26T11:34:58.735Z,11.30
2019-04-26T11:37:26.500Z,11.40
2019-04-26T11:39:55.607Z,11.20
2019-04-26T11:42:24.559Z,11.00
2019-04-26T11:45:05.410Z,10.90
2019-04-26T11:47:24.417Z,10.80
2019-04-26T11:49:53.495Z,10.80
2019-04-26T11:52:22.506Z,11.10
2019-04-26T11:54:55.226Z,11.20
2019-04-26T11:57:22.232Z,10.70
2019-04-26T11:59:51.471Z,10.70
2019-04-26T12:02:20.408Z,10.30
2019-04-26T12:04:55.122Z,10.40
2019-04-26T12:07:37.331Z,10.20
2019-04-26T12:10:09.860Z,10.20
2019-04-26T12:12:37.465Z,10.20
2019-04-26T12:15:08.444Z,10.00
2019-04-26T12:17:37.978Z,9.80
2019-04-26T12:20:07.770Z,9.90
2019-04-26T12:22:39.387Z,9.80
2019-04-26T12:25:08.365Z,9.90
2019-04-26T12:27:37.729Z,9.70
2019-04-26T12:30:07.599Z,9.70
2019-04-26T12:32:36.605Z,9.70
2019-04-26T12:35:05.835Z,10.00
2019-04-26T12:37:34.988Z,9.80
2019-04-26T12:40:07.254Z,9.70
2019-04-26T12:42:36.511Z,10.00
2019-04-26T12:45:22.660Z,10.10
2019-04-26T12:47:54.591Z,9.90
2019-04-26T12:50:23.656Z,9.70
2019-04-26T12:52:55.701Z,9.70
2019-04-26T12:55:23.637Z,9.80
2019-04-26T12:57:52.701Z,9.90
2019-04-26T13:00:28.627Z,9.60
2019-04-26T13:02:58.567Z,10.00
2019-04-26T13:05:27.631Z,9.90
2019-04-26T13:07:56.740Z,9.90
2019-04-26T13:10:47.650Z,10.10
2019-04-26T13:13:21.449Z,9.70
2019-04-26T13:16:21.532Z,9.70
2019-04-26T13:18:50.504Z,9.70
2019-04-26T13:21:19.477Z,9.80
2019-04-26T13:23:48.562Z,9.60
2019-04-26T13:26:17.615Z,9.40
2019-04-26T13:28:46.548Z,9.30
2019-04-26T13:31:15.759Z,9.60
2019-04-26T13:33:44.922Z,9.40
2019-04-26T13:36:13.974Z,9.50
2019-04-26T13:38:43.719Z,9.60
2019-04-26T13:41:13.758Z,9.50
2019-04-26T13:43:44.723Z,9.60
2019-04-26T13:46:35.899Z,9.90
2019-04-26T13:49:14.120Z,9.40
2019-04-26T13:51:41.361Z,9.40
2019-04-26T13:54:10.457Z,9.30
2019-04-26T13:56:39.529Z,9.20
2019-04-26T13:59:08.525Z,8.90
2019-04-26T14:01:37.730Z,9.30
2019-04-26T14:04:07.444Z,9.20
2019-04-26T14:06:37.511Z,9.00
2019-04-26T14:09:08.743Z,9.00
2019-04-26T14:11:37.740Z,9.20
2019-04-26T14:14:06.804Z,9.10
2019-04-26T14:16:35.908Z,9.30
2019-04-26T14:19:05.132Z,9.00
2019-04-26T14:21:34.861Z,9.00
2019-04-26T14:24:29.290Z,8.90
2019-04-26T14:27:01.595Z,9.00
2019-04-26T14:29:32.529Z,9.00
2019-04-26T14:32:01.564Z,9.00
2019-04-26T14:34:30.620Z,8.90
2019-04-26T14:37:06.247Z,8.80
2019-04-26T14:39:49.622Z,8.70
2019-04-26T14:42:01.644Z,8.60
2019-04-26T14:44:31.209Z,8.80
2019-04-26T14:47:13.101Z,8.90
2019-04-26T14:49:39.017Z,9.00
2019-04-26T14:52:03.498Z,9.20
2019-04-26T14:54:32.674Z,8.90
2019-04-26T14:57:07.667Z,9.10
2019-04-26T14:59:52.781Z,8.90
2019-04-26T15:02:46.898Z,9.20
2019-04-26T15:05:22.126Z,8.80
2019-04-26T15:07:53.570Z,9.10
2019-04-26T15:10:23.757Z,9.10
2019-04-26T15:13:01.417Z,9.20
2019-04-26T15:15:26.951Z,8.90
2019-04-26T15:17:59.535Z,9.30
2019-04-26T15:20:25.128Z,9.00
2019-04-26T15:22:54.310Z,8.90
2019-04-26T15:25:23.226Z,8.80
2019-04-26T15:27:52.547Z,9.00
2019-04-26T15:30:22.306Z,9.10
2019-04-26T15:32:52.910Z,9.20
2019-04-26T15:35:23.206Z,9.20
2019-04-26T15:37:53.448Z,9.00
2019-04-26T15:40:40.491Z,8.80
2019-04-26T15:43:32.735Z,8.80
2019-04-26T15:46:19.682Z,8.90
2019-04-26T15:49:09.508Z,8.80
2019-04-26T15:51:38.732Z,8.80
2019-04-26T15:54:07.735Z,9.00
2019-04-26T15:56:36.923Z,9.00
2019-04-26T15:59:06.007Z,8.90
2019-04-26T16:01:35.117Z,9.10
2019-04-26T16:04:06.353Z,8.70
2019-04-26T16:06:37.330Z,8.60
2019-04-26T16:09:08.387Z,9.00
2019-04-26T16:11:37.394Z,9.00
2019-04-26T16:14:06.589Z,9.10
2019-04-26T16:16:35.594Z,9.00
2019-04-26T16:19:04.605Z,8.70
2019-04-26T16:21:33.654Z,8.70
2019-04-26T16:24:02.828Z,9.10
2019-04-26T16:26:32.966Z,9.00
2019-04-26T16:29:19.775Z,8.80
2019-04-26T16:32:06.829Z,9.10
2019-04-26T16:34:41.677Z,9.00
2019-04-26T16:37:09.758Z,9.40
2019-04-26T16:39:40.025Z,9.10
2019-04-26T16:42:09.201Z,9.00
2019-04-26T16:44:38.267Z,9.00
2019-04-26T16:47:07.426Z,9.10
2019-04-26T16:49:41.880Z,9.30
2019-04-26T16:52:07.373Z,9.20
2019-04-26T16:54:36.645Z,9.20
2019-04-26T16:57:11.174Z,9.30
2019-04-26T16:59:36.445Z,9.50
2019-04-26T17:02:06.016Z,9.40
2019-04-26T17:04:36.284Z,9.50
2019-04-26T17:07:05.606Z,9.50
2019-04-26T17:09:54.779Z,9.80
2019-04-26T17:12:05.721Z,9.90
2019-04-26T17:14:34.803Z,10.00
2019-04-26T17:17:07.467Z,10.10
2019-04-26T17:19:37.463Z,9.80
2019-04-26T17:22:39.945Z,9.80
2019-04-26T17:25:24.414Z,9.90
2019-04-26T17:27:52.820Z,9.90
2019-04-26T17:30:24.530Z,9.60
2019-04-26T17:32:55.183Z,9.70
2019-04-26T17:35:25.396Z,9.80
2019-04-26T17:37:57.397Z,9.80
2019-04-26T17:40:29.430Z,10.00
2019-04-26T17:42:56.162Z,10.00
2019-04-26T17:45:25.294Z,9.80
2019-04-26T17:47:54.295Z,9.80
2019-04-26T17:50:23.488Z,9.80
2019-04-26T17:52:52.660Z,9.80
2019-04-26T17:55:21.811Z,9.80
2019-04-26T17:57:52.553Z,9.70
2019-04-26T18:00:27.057Z,9.60
2019-04-26T18:02:56.272Z,9.70
2019-04-26T18:05:39.961Z,9.60
2019-04-26T18:07:59.434Z,9.30
2019-04-26T18:10:26.782Z,9.20
2019-04-26T18:12:55.782Z,9.40
2019-04-26T18:15:24.870Z,9.30
2019-04-26T18:18:28.419Z,9.20
2019-04-26T18:21:19.074Z,9.30
2019-04-26T18:23:48.761Z,9.10
2019-04-26T18:26:21.547Z,9.30
2019-04-26T18:28:51.887Z,9.30
2019-04-26T18:31:22.142Z,9.20
2019-04-26T18:33:50.532Z,9.30
2019-04-26T18:36:19.603Z,9.70
2019-04-26T18:38:49.536Z,9.40
2019-04-26T18:41:18.609Z,9.40
2019-04-26T18:43:47.658Z,9.20
2019-04-26T18:46:23.970Z,9.30
2019-04-26T18:48:53.447Z,9.20
2019-04-26T18:51:23.633Z,9.30
2019-04-26T18:54:14.563Z,9.40
2019-04-26T18:56:45.251Z,9.40
2019-04-26T18:59:15.547Z,9.30
2019-04-26T19:01:44.865Z,9.50
2019-04-26T19:04:15.494Z,9.50
2019-04-26T19:06:44.777Z,9.60
2019-04-26T19:09:15.642Z,9.40
2019-04-26T19:11:48.627Z,9.30
2019-04-26T19:14:33.368Z,9.30
2019-04-26T19:17:11.969Z,9.40
2019-04-26T19:19:56.758Z,9.60
2019-04-26T19:22:25.953Z,9.50
2019-04-26T19:24:57.520Z,9.50
2019-04-26T19:27:26.738Z,9.60
2019-04-26T19:29:56.774Z,9.60
2019-04-26T19:32:25.856Z,9.60
2019-04-26T19:34:54.847Z,9.40
2019-04-26T19:37:23.896Z,9.60
2019-04-26T19:39:53.099Z,9.50
2019-04-26T19:42:22.166Z,9.50
2019-04-26T19:45:10.824Z,9.50
2019-04-26T19:47:29.759Z,9.30
2019-04-26T19:50:15.016Z,9.40
2019-04-26T19:52:53.604Z,9.20
2019-04-26T19:55:36.973Z,9.20
2019-04-26T19:58:09.700Z,9.40
2019-04-26T20:00:43.369Z,9.30
2019-04-26T20:03:13.501Z,9.30
2019-04-26T20:05:43.997Z,9.40
2019-04-26T20:08:12.138Z,9.20
2019-04-26T20:10:45.482Z,9.40
2019-04-26T20:13:15.214Z,9.40
2019-04-26T20:15:42.884Z,9.30
2019-04-26T20:18:12.339Z,9.30
2019-04-26T20:20:41.677Z,9.10
2019-04-26T20:23:12.322Z,9.30
2019-04-26T20:25:41.616Z,9.40
2019-04-26T20:28:12.186Z,9.40
2019-04-26T20:30:52.832Z,9.20
2019-04-26T20:33:22.439Z,9.20
2019-04-26T20:35:51.729Z,9.30
2019-04-26T20:38:20.895Z,9.30
2019-04-26T20:40:50.099Z,9.30
2019-04-26T20:43:24.361Z,9.30
2019-04-26T20:46:08.862Z,9.20
2019-04-26T20:48:21.596Z,9.20
2019-04-26T20:50:51.986Z,9.40
2019-04-26T20:53:21.853Z,9.30
2019-04-26T20:55:52.703Z,9.40
2019-04-26T20:58:21.811Z,9.30
2019-04-26T21:00:54.423Z,9.40
2019-04-26T21:03:26.020Z,9.50
2019-04-26T21:05:58.814Z,9.30
2019-04-26T21:08:25.988Z,9.30
2019-04-26T21:10:56.143Z,9.30
2019-04-26T21:13:30.883Z,9.40
2019-04-26T21:15:58.468Z,9.40
2019-04-26T21:18:26.243Z,9.30
2019-04-26T21:20:55.283Z,9.30
2019-04-26T21:23:24.363Z,9.40
2019-04-26T21:26:07.186Z,9.50
2019-04-26T21:28:42.676Z,9.40
2019-04-26T21:31:31.369Z,9.40
2019-04-26T21:34:15.156Z,9.50
2019-04-26T21:37:04.126Z,9.50
2019-04-26T21:39:44.175Z,9.50
2019-04-26T21:42:11.423Z,9.50
2019-04-26T21:44:40.529Z,9.40
2019-04-26T21:47:11.315Z,9.30
2019-04-26T21:49:40.437Z,9.30
2019-04-26T21:52:09.603Z,9.30
2019-04-26T21:54:38.547Z,9.30
2019-04-26T21:57:07.596Z,9.30
2019-04-26T21:59:40.898Z,9.30
2019-04-26T22:02:08.067Z,9.30
2019-04-26T22:04:37.782Z,9.30
2019-04-26T22:07:07.782Z,9.30
2019-04-26T22:09:53.813Z,9.20
2019-04-26T22:12:23.350Z,9.40
2019-04-26T22:15:13.648Z,9.50
2019-04-26T22:17:44.611Z,9.40
2019-04-26T22:20:23.395Z,9.30
2019-04-26T22:23:30.109Z,9.10
2019-04-26T22:26:00.260Z,9.20
2019-04-26T22:28:31.171Z,9.30
2019-04-26T22:31:06.910Z,9.30
2019-04-26T22:33:34.110Z,9.20
2019-04-26T22:36:04.047Z,9.40
2019-04-26T22:38:33.980Z,9.30
2019-04-26T22:41:03.401Z,9.20
2019-04-26T22:43:45.299Z,9.30
2019-04-26T22:46:44.490Z,9.10
2019-04-26T22:49:05.606Z,9.10
2019-04-26T22:51:37.184Z,9.20
2019-04-26T22:54:06.337Z,9.20
2019-04-26T22:56:37.091Z,9.20
2019-04-26T22:59:08.041Z,9.30
2019-04-26T23:01:39.203Z,9.40
2019-04-26T23:04:08.477Z,9.30
2019-04-26T23:06:37.559Z,9.20
2019-04-26T23:09:11.514Z,9.10
2019-04-26T23:11:43.908Z,9.20
2019-04-26T23:14:43.872Z,9.00
2019-04-26T23:17:34.810Z,8.90
2019-04-26T23:20:19.721Z,8.90
2019-04-26T23:22:48.743Z,9.00
2019-04-26T23:25:17.803Z,8.90
2019-04-26T23:27:50.386Z,9.10
2019-04-26T23:30:17.608Z,9.00
2019-04-26T23:32:48.555Z,9.20
2019-04-26T23:35:17.446Z,9.10
2019-04-26T23:37:46.515Z,9.10
2019-04-26T23:40:16.067Z,9.00
2019-04-26T23:42:47.612Z,9.00
2019-04-26T23:45:15.913Z,9.20
2019-04-26T23:47:44.832Z,9.20
2019-04-26T23:50:14.160Z,9.10
2019-04-26T23:52:43.644Z,9.00
2019-04-26T23:55:13.504Z,9.30
2019-04-26T23:57:43.512Z,9.20
